sensor_id;sensor_type;location;lat;lon;timestamp;P1;durP1;ratioP1;P2;durP2;ratioP2
66012;SDS011;52783;50.502;8.190;2022-10-23T00:02:03;10.38;;;2.55;;
66012;SDS011;52783;50.502;8.190;2022-10-23T00:04:29;17.67;;;3.10;;
66012;SDS011;52783;50.502;8.190;2022-10-23T00:06:55;11.63;;;3.20;;
66012;SDS011;52783;50.502;8.190;2022-10-23T00:09:21;14.65;;;3.13;;
66012;SDS011;52783;50.502;8.190;2022-10-23T00:11:48;13.38;;;3.30;;
66012;SDS011;52783;50.502;8.190;2022-10-23T00:14:17;10.05;;;3.28;;
66012;SDS011;52783;50.502;8.190;2022-10-23T00:16:44;13.68;;;3.83;;
66012;SDS011;52783;50.502;8.190;2022-10-23T00:19:10;11.57;;;4.20;;
66012;SDS011;52783;50.502;8.190;2022-10-23T00:21:39;13.07;;;5.20;;
66012;SDS011;52783;50.502;8.190;2022-10-23T00:24:05;45.08;;;5.07;;
66012;SDS011;52783;50.502;8.190;2022-10-23T00:26:32;12.05;;;4.70;;
66012;SDS011;52783;50.502;8.190;2022-10-23T00:28:58;18.15;;;6.50;;
66012;SDS011;52783;50.502;8.190;2022-10-23T00:31:23;8.18;;;4.60;;
66012;SDS011;52783;50.502;8.190;2022-10-23T00:33:50;22.15;;;5.32;;
66012;SDS011;52783;50.502;8.190;2022-10-23T00:36:17;14.73;;;5.13;;
66012;SDS011;52783;50.502;8.190;2022-10-23T00:38:44;14.50;;;5.30;;
66012;SDS011;52783;50.502;8.190;2022-10-23T00:41:15;23.60;;;5.45;;
66012;SDS011;52783;50.502;8.190;2022-10-23T00:43:56;10.77;;;5.78;;
66012;SDS011;52783;50.502;8.190;2022-10-23T00:46:25;14.60;;;4.82;;
66012;SDS011;52783;50.502;8.190;2022-10-23T00:48:50;17.58;;;5.53;;
66012;SDS011;52783;50.502;8.190;2022-10-23T00:51:16;13.65;;;5.00;;
66012;SDS011;52783;50.502;8.190;2022-10-23T00:53:42;22.42;;;5.82;;
66012;SDS011;52783;50.502;8.190;2022-10-23T00:56:09;16.13;;;5.10;;
66012;SDS011;52783;50.502;8.190;2022-10-23T00:58:35;17.85;;;4.88;;
66012;SDS011;52783;50.502;8.190;2022-10-23T01:01:01;15.68;;;5.13;;
66012;SDS011;52783;50.502;8.190;2022-10-23T01:03:27;16.35;;;5.50;;
66012;SDS011;52783;50.502;8.190;2022-10-23T01:05:58;16.17;;;4.95;;
66012;SDS011;52783;50.502;8.190;2022-10-23T01:08:34;14.00;;;5.45;;
66012;SDS011;52783;50.502;8.190;2022-10-23T01:11:14;14.15;;;5.50;;
66012;SDS011;52783;50.502;8.190;2022-10-23T01:22:11;12.35;;;4.40;;
66012;SDS011;52783;50.502;8.190;2022-10-23T01:25:22;20.88;;;5.47;;
66012;SDS011;52783;50.502;8.190;2022-10-23T01:28:00;16.48;;;4.28;;
66012;SDS011;52783;50.502;8.190;2022-10-23T01:30:28;19.17;;;4.00;;
66012;SDS011;52783;50.502;8.190;2022-10-23T01:33:08;15.20;;;4.18;;
66012;SDS011;52783;50.502;8.190;2022-10-23T01:35:39;14.15;;;3.65;;
66012;SDS011;52783;50.502;8.190;2022-10-23T01:43:27;9.07;;;2.92;;
66012;SDS011;52783;50.502;8.190;2022-10-23T01:45:57;12.10;;;3.58;;
66012;SDS011;52783;50.502;8.190;2022-10-23T01:48:27;5.65;;;2.88;;
66012;SDS011;52783;50.502;8.190;2022-10-23T01:50:56;12.93;;;4.10;;
66012;SDS011;52783;50.502;8.190;2022-10-23T01:53:25;14.60;;;4.63;;
66012;SDS011;52783;50.502;8.190;2022-10-23T01:55:54;18.45;;;5.50;;
66012;SDS011;52783;50.502;8.190;2022-10-23T01:58:21;19.33;;;5.32;;
66012;SDS011;52783;50.502;8.190;2022-10-23T02:00:49;16.65;;;5.82;;
66012;SDS011;52783;50.502;8.190;2022-10-23T02:03:16;17.85;;;5.97;;
66012;SDS011;52783;50.502;8.190;2022-10-23T02:05:43;24.52;;;6.65;;
66012;SDS011;52783;50.502;8.190;2022-10-23T02:08:09;15.27;;;6.53;;
66012;SDS011;52783;50.502;8.190;2022-10-23T02:10:43;11.55;;;5.47;;
66012;SDS011;52783;50.502;8.190;2022-10-23T02:16:49;27.13;;;5.90;;
66012;SDS011;52783;50.502;8.190;2022-10-23T02:19:24;14.80;;;5.28;;
66012;SDS011;52783;50.502;8.190;2022-10-23T02:24:35;14.43;;;4.15;;
66012;SDS011;52783;50.502;8.190;2022-10-23T02:29:42;10.82;;;3.55;;
66012;SDS011;52783;50.502;8.190;2022-10-23T02:32:12;13.38;;;3.58;;
66012;SDS011;52783;50.502;8.190;2022-10-23T02:34:39;12.77;;;4.13;;
66012;SDS011;52783;50.502;8.190;2022-10-23T02:37:05;10.27;;;3.55;;
66012;SDS011;52783;50.502;8.190;2022-10-23T02:39:31;6.38;;;2.78;;
66012;SDS011;52783;50.502;8.190;2022-10-23T02:47:38;10.88;;;2.80;;
66012;SDS011;52783;50.502;8.190;2022-10-23T02:53:15;12.75;;;3.60;;
66012;SDS011;52783;50.502;8.190;2022-10-23T02:55:50;8.25;;;3.30;;
66012;SDS011;52783;50.502;8.190;2022-10-23T03:00:49;10.50;;;3.67;;
66012;SDS011;52783;50.502;8.190;2022-10-23T03:03:25;15.07;;;4.68;;
66012;SDS011;52783;50.502;8.190;2022-10-23T03:05:53;14.93;;;5.05;;
66012;SDS011;52783;50.502;8.190;2022-10-23T03:08:19;12.18;;;5.40;;
66012;SDS011;52783;50.502;8.190;2022-10-23T03:10:45;12.20;;;4.90;;
66012;SDS011;52783;50.502;8.190;2022-10-23T03:13:10;17.55;;;5.20;;
66012;SDS011;52783;50.502;8.190;2022-10-23T03:15:36;9.48;;;5.30;;
66012;SDS011;52783;50.502;8.190;2022-10-23T03:18:02;13.82;;;5.07;;
66012;SDS011;52783;50.502;8.190;2022-10-23T03:20:28;16.58;;;5.80;;
66012;SDS011;52783;50.502;8.190;2022-10-23T03:22:53;19.45;;;5.85;;
66012;SDS011;52783;50.502;8.190;2022-10-23T03:25:19;12.07;;;6.30;;
66012;SDS011;52783;50.502;8.190;2022-10-23T03:27:44;15.43;;;6.55;;
66012;SDS011;52783;50.502;8.190;2022-10-23T03:30:10;15.32;;;6.10;;
66012;SDS011;52783;50.502;8.190;2022-10-23T03:32:36;17.70;;;7.13;;
66012;SDS011;52783;50.502;8.190;2022-10-23T03:35:01;13.45;;;6.40;;
66012;SDS011;52783;50.502;8.190;2022-10-23T03:37:27;19.45;;;6.05;;
66012;SDS011;52783;50.502;8.190;2022-10-23T03:39:52;13.70;;;6.60;;
66012;SDS011;52783;50.502;8.190;2022-10-23T03:42:18;15.88;;;7.20;;
66012;SDS011;52783;50.502;8.190;2022-10-23T03:44:43;16.30;;;7.18;;
66012;SDS011;52783;50.502;8.190;2022-10-23T03:47:09;14.10;;;6.78;;
66012;SDS011;52783;50.502;8.190;2022-10-23T03:49:36;20.92;;;7.38;;
66012;SDS011;52783;50.502;8.190;2022-10-23T03:52:05;23.80;;;7.43;;
66012;SDS011;52783;50.502;8.190;2022-10-23T03:54:31;12.50;;;6.22;;
66012;SDS011;52783;50.502;8.190;2022-10-23T03:56:57;16.58;;;6.63;;
66012;SDS011;52783;50.502;8.190;2022-10-23T03:59:23;19.52;;;6.72;;
66012;SDS011;52783;50.502;8.190;2022-10-23T04:01:49;16.60;;;7.65;;
66012;SDS011;52783;50.502;8.190;2022-10-23T04:04:15;17.02;;;6.95;;
66012;SDS011;52783;50.502;8.190;2022-10-23T04:06:41;20.83;;;7.28;;
66012;SDS011;52783;50.502;8.190;2022-10-23T04:09:07;13.25;;;6.82;;
66012;SDS011;52783;50.502;8.190;2022-10-23T04:11:32;17.52;;;7.05;;
66012;SDS011;52783;50.502;8.190;2022-10-23T04:13:58;12.70;;;6.30;;
66012;SDS011;52783;50.502;8.190;2022-10-23T04:16:24;20.77;;;6.85;;
66012;SDS011;52783;50.502;8.190;2022-10-23T04:18:50;18.55;;;7.28;;
66012;SDS011;52783;50.502;8.190;2022-10-23T04:21:16;13.15;;;6.45;;
66012;SDS011;52783;50.502;8.190;2022-10-23T04:23:42;17.75;;;7.55;;
66012;SDS011;52783;50.502;8.190;2022-10-23T04:26:08;14.35;;;6.72;;
66012;SDS011;52783;50.502;8.190;2022-10-23T04:28:34;19.80;;;6.90;;
66012;SDS011;52783;50.502;8.190;2022-10-23T04:30:59;17.75;;;7.65;;
66012;SDS011;52783;50.502;8.190;2022-10-23T04:33:25;22.30;;;7.65;;
66012;SDS011;52783;50.502;8.190;2022-10-23T04:35:51;20.33;;;7.75;;
66012;SDS011;52783;50.502;8.190;2022-10-23T04:38:16;16.17;;;7.80;;
66012;SDS011;52783;50.502;8.190;2022-10-23T04:40:42;18.33;;;7.45;;
66012;SDS011;52783;50.502;8.190;2022-10-23T04:43:07;18.95;;;7.38;;
66012;SDS011;52783;50.502;8.190;2022-10-23T04:45:33;14.63;;;6.88;;
66012;SDS011;52783;50.502;8.190;2022-10-23T04:47:58;19.65;;;7.82;;
66012;SDS011;52783;50.502;8.190;2022-10-23T04:50:24;23.02;;;8.50;;
66012;SDS011;52783;50.502;8.190;2022-10-23T04:52:53;20.00;;;9.63;;
66012;SDS011;52783;50.502;8.190;2022-10-23T04:55:19;19.00;;;10.15;;
66012;SDS011;52783;50.502;8.190;2022-10-23T04:57:45;19.67;;;9.63;;
66012;SDS011;52783;50.502;8.190;2022-10-23T05:00:11;24.38;;;10.35;;
66012;SDS011;52783;50.502;8.190;2022-10-23T05:02:38;25.35;;;10.82;;
66012;SDS011;52783;50.502;8.190;2022-10-23T05:05:04;24.20;;;10.68;;
66012;SDS011;52783;50.502;8.190;2022-10-23T05:07:30;26.38;;;10.32;;
66012;SDS011;52783;50.502;8.190;2022-10-23T05:09:56;24.27;;;9.60;;
66012;SDS011;52783;50.502;8.190;2022-10-23T05:12:21;28.05;;;10.52;;
66012;SDS011;52783;50.502;8.190;2022-10-23T05:14:49;33.05;;;10.50;;
66012;SDS011;52783;50.502;8.190;2022-10-23T05:17:15;22.83;;;10.05;;
66012;SDS011;52783;50.502;8.190;2022-10-23T05:19:45;22.30;;;9.00;;
66012;SDS011;52783;50.502;8.190;2022-10-23T05:22:19;24.33;;;9.02;;
66012;SDS011;52783;50.502;8.190;2022-10-23T05:24:47;22.95;;;9.05;;
66012;SDS011;52783;50.502;8.190;2022-10-23T05:27:12;22.98;;;9.40;;
66012;SDS011;52783;50.502;8.190;2022-10-23T05:29:38;23.63;;;8.30;;
66012;SDS011;52783;50.502;8.190;2022-10-23T05:32:04;17.67;;;8.07;;
66012;SDS011;52783;50.502;8.190;2022-10-23T05:34:31;20.05;;;8.65;;
66012;SDS011;52783;50.502;8.190;2022-10-23T05:36:59;21.85;;;9.20;;
66012;SDS011;52783;50.502;8.190;2022-10-23T05:39:26;29.67;;;9.77;;
66012;SDS011;52783;50.502;8.190;2022-10-23T05:41:51;28.98;;;10.43;;
66012;SDS011;52783;50.502;8.190;2022-10-23T05:44:19;20.20;;;9.38;;
66012;SDS011;52783;50.502;8.190;2022-10-23T05:46:44;22.73;;;9.45;;
66012;SDS011;52783;50.502;8.190;2022-10-23T05:49:10;17.75;;;8.10;;
66012;SDS011;52783;50.502;8.190;2022-10-23T05:51:36;23.92;;;9.27;;
66012;SDS011;52783;50.502;8.190;2022-10-23T05:54:03;20.20;;;8.98;;
66012;SDS011;52783;50.502;8.190;2022-10-23T05:56:31;18.67;;;8.55;;
66012;SDS011;52783;50.502;8.190;2022-10-23T05:59:01;18.40;;;8.18;;
66012;SDS011;52783;50.502;8.190;2022-10-23T06:01:26;20.33;;;8.10;;
66012;SDS011;52783;50.502;8.190;2022-10-23T06:03:52;14.30;;;6.97;;
66012;SDS011;52783;50.502;8.190;2022-10-23T06:06:17;17.20;;;8.35;;
66012;SDS011;52783;50.502;8.190;2022-10-23T06:08:43;21.20;;;7.38;;
66012;SDS011;52783;50.502;8.190;2022-10-23T06:11:09;19.77;;;6.90;;
66012;SDS011;52783;50.502;8.190;2022-10-23T06:13:37;23.50;;;7.30;;
66012;SDS011;52783;50.502;8.190;2022-10-23T06:16:10;16.42;;;7.07;;
66012;SDS011;52783;50.502;8.190;2022-10-23T06:18:38;12.35;;;6.07;;
66012;SDS011;52783;50.502;8.190;2022-10-23T06:21:04;20.02;;;6.47;;
66012;SDS011;52783;50.502;8.190;2022-10-23T06:23:31;15.85;;;7.53;;
66012;SDS011;52783;50.502;8.190;2022-10-23T06:25:57;15.25;;;8.20;;
66012;SDS011;52783;50.502;8.190;2022-10-23T06:28:23;21.83;;;7.32;;
66012;SDS011;52783;50.502;8.190;2022-10-23T06:30:49;8.20;;;5.40;;
66012;SDS011;52783;50.502;8.190;2022-10-23T06:33:14;14.15;;;5.28;;
66012;SDS011;52783;50.502;8.190;2022-10-23T06:35:40;14.10;;;4.70;;
66012;SDS011;52783;50.502;8.190;2022-10-23T06:38:05;13.52;;;5.55;;
66012;SDS011;52783;50.502;8.190;2022-10-23T06:40:33;11.27;;;5.65;;
66012;SDS011;52783;50.502;8.190;2022-10-23T06:42:59;11.65;;;5.40;;
66012;SDS011;52783;50.502;8.190;2022-10-23T06:45:24;11.73;;;5.47;;
66012;SDS011;52783;50.502;8.190;2022-10-23T06:47:50;10.68;;;4.35;;
66012;SDS011;52783;50.502;8.190;2022-10-23T06:50:16;11.88;;;4.50;;
66012;SDS011;52783;50.502;8.190;2022-10-23T06:52:41;8.52;;;4.15;;
66012;SDS011;52783;50.502;8.190;2022-10-23T06:55:07;13.43;;;4.70;;
66012;SDS011;52783;50.502;8.190;2022-10-23T06:57:33;9.63;;;4.43;;
66012;SDS011;52783;50.502;8.190;2022-10-23T06:59:59;8.57;;;3.95;;
66012;SDS011;52783;50.502;8.190;2022-10-23T07:02:24;9.27;;;3.92;;
66012;SDS011;52783;50.502;8.190;2022-10-23T07:04:50;10.32;;;4.65;;
66012;SDS011;52783;50.502;8.190;2022-10-23T07:07:16;7.55;;;3.70;;
66012;SDS011;52783;50.502;8.190;2022-10-23T07:09:42;11.57;;;3.60;;
66012;SDS011;52783;50.502;8.190;2022-10-23T07:12:08;11.02;;;3.60;;
66012;SDS011;52783;50.502;8.190;2022-10-23T07:14:33;7.38;;;3.30;;
66012;SDS011;52783;50.502;8.190;2022-10-23T07:16:59;7.88;;;3.75;;
66012;SDS011;52783;50.502;8.190;2022-10-23T07:19:25;5.13;;;3.42;;
66012;SDS011;52783;50.502;8.190;2022-10-23T07:21:50;5.75;;;3.20;;
66012;SDS011;52783;50.502;8.190;2022-10-23T07:24:16;5.40;;;3.20;;
66012;SDS011;52783;50.502;8.190;2022-10-23T07:26:42;10.80;;;3.38;;
66012;SDS011;52783;50.502;8.190;2022-10-23T07:29:08;5.47;;;3.25;;
66012;SDS011;52783;50.502;8.190;2022-10-23T07:31:35;4.22;;;2.85;;
66012;SDS011;52783;50.502;8.190;2022-10-23T07:34:00;7.00;;;2.88;;
66012;SDS011;52783;50.502;8.190;2022-10-23T07:36:26;15.25;;;3.13;;
66012;SDS011;52783;50.502;8.190;2022-10-23T07:38:52;5.40;;;2.92;;
66012;SDS011;52783;50.502;8.190;2022-10-23T07:41:17;6.20;;;2.70;;
66012;SDS011;52783;50.502;8.190;2022-10-23T07:43:43;8.70;;;2.92;;
66012;SDS011;52783;50.502;8.190;2022-10-23T07:46:09;8.07;;;2.78;;
66012;SDS011;52783;50.502;8.190;2022-10-23T07:48:35;11.10;;;2.90;;
66012;SDS011;52783;50.502;8.190;2022-10-23T07:51:03;8.00;;;3.00;;
66012;SDS011;52783;50.502;8.190;2022-10-23T07:53:34;5.53;;;2.45;;
66012;SDS011;52783;50.502;8.190;2022-10-23T07:56:01;11.65;;;2.50;;
66012;SDS011;52783;50.502;8.190;2022-10-23T07:58:29;9.18;;;2.95;;
66012;SDS011;52783;50.502;8.190;2022-10-23T08:00:58;8.02;;;2.97;;
66012;SDS011;52783;50.502;8.190;2022-10-23T08:03:27;7.43;;;2.88;;
66012;SDS011;52783;50.502;8.190;2022-10-23T08:05:55;5.05;;;2.72;;
66012;SDS011;52783;50.502;8.190;2022-10-23T08:08:21;5.63;;;3.50;;
66012;SDS011;52783;50.502;8.190;2022-10-23T08:10:48;4.88;;;2.80;;
66012;SDS011;52783;50.502;8.190;2022-10-23T08:13:15;7.90;;;3.05;;
66012;SDS011;52783;50.502;8.190;2022-10-23T08:15:41;6.68;;;2.67;;
66012;SDS011;52783;50.502;8.190;2022-10-23T08:18:08;12.10;;;2.70;;
66012;SDS011;52783;50.502;8.190;2022-10-23T08:20:40;7.03;;;2.92;;
66012;SDS011;52783;50.502;8.190;2022-10-23T08:23:07;4.20;;;2.80;;
66012;SDS011;52783;50.502;8.190;2022-10-23T08:25:33;3.55;;;2.65;;
66012;SDS011;52783;50.502;8.190;2022-10-23T08:27:59;15.02;;;5.15;;
66012;SDS011;52783;50.502;8.190;2022-10-23T08:30:25;5.93;;;2.55;;
66012;SDS011;52783;50.502;8.190;2022-10-23T08:32:51;6.20;;;2.95;;
66012;SDS011;52783;50.502;8.190;2022-10-23T08:35:17;3.42;;;2.50;;
66012;SDS011;52783;50.502;8.190;2022-10-23T08:37:43;6.18;;;2.97;;
66012;SDS011;52783;50.502;8.190;2022-10-23T08:40:19;7.85;;;2.63;;
66012;SDS011;52783;50.502;8.190;2022-10-23T08:43:31;5.15;;;2.28;;
66012;SDS011;52783;50.502;8.190;2022-10-23T08:45:51;9.10;;;2.95;;
66012;SDS011;52783;50.502;8.190;2022-10-23T08:51:04;24.30;;;4.72;;
66012;SDS011;52783;50.502;8.190;2022-10-23T08:56:25;4.80;;;2.53;;
66012;SDS011;52783;50.502;8.190;2022-10-23T09:01:55;16.33;;;2.40;;
66012;SDS011;52783;50.502;8.190;2022-10-23T09:04:27;3.75;;;2.20;;
66012;SDS011;52783;50.502;8.190;2022-10-23T09:12:17;9.20;;;2.50;;
66012;SDS011;52783;50.502;8.190;2022-10-23T09:14:53;5.97;;;2.20;;
66012;SDS011;52783;50.502;8.190;2022-10-23T09:17:32;9.02;;;2.50;;
66012;SDS011;52783;50.502;8.190;2022-10-23T09:20:11;7.47;;;2.53;;
66012;SDS011;52783;50.502;8.190;2022-10-23T09:22:45;5.88;;;2.00;;
66012;SDS011;52783;50.502;8.190;2022-10-23T09:25:36;4.90;;;2.42;;
66012;SDS011;52783;50.502;8.190;2022-10-23T09:28:03;6.70;;;2.45;;
66012;SDS011;52783;50.502;8.190;2022-10-23T09:32:59;4.13;;;2.30;;
66012;SDS011;52783;50.502;8.190;2022-10-23T09:35:37;4.28;;;2.47;;
66012;SDS011;52783;50.502;8.190;2022-10-23T09:38:03;7.70;;;2.25;;
66012;SDS011;52783;50.502;8.190;2022-10-23T09:40:30;6.47;;;2.45;;
66012;SDS011;52783;50.502;8.190;2022-10-23T09:43:09;5.18;;;2.33;;
66012;SDS011;52783;50.502;8.190;2022-10-23T09:45:41;7.13;;;2.33;;
66012;SDS011;52783;50.502;8.190;2022-10-23T09:48:09;9.63;;;2.90;;
66012;SDS011;52783;50.502;8.190;2022-10-23T09:50:48;4.07;;;2.13;;
66012;SDS011;52783;50.502;8.190;2022-10-23T09:53:17;13.77;;;2.78;;
66012;SDS011;52783;50.502;8.190;2022-10-23T09:55:53;7.95;;;2.40;;
66012;SDS011;52783;50.502;8.190;2022-10-23T09:58:24;4.80;;;2.53;;
66012;SDS011;52783;50.502;8.190;2022-10-23T10:00:55;6.28;;;2.70;;
66012;SDS011;52783;50.502;8.190;2022-10-23T10:03:22;9.68;;;2.90;;
66012;SDS011;52783;50.502;8.190;2022-10-23T10:06:00;7.80;;;2.53;;
66012;SDS011;52783;50.502;8.190;2022-10-23T10:08:30;7.82;;;2.22;;
66012;SDS011;52783;50.502;8.190;2022-10-23T10:11:11;5.63;;;2.40;;
66012;SDS011;52783;50.502;8.190;2022-10-23T10:21:58;7.75;;;2.58;;
66012;SDS011;52783;50.502;8.190;2022-10-23T10:30:21;8.40;;;2.63;;
66012;SDS011;52783;50.502;8.190;2022-10-23T10:32:58;9.75;;;3.00;;
66012;SDS011;52783;50.502;8.190;2022-10-23T10:38:26;12.98;;;2.90;;
66012;SDS011;52783;50.502;8.190;2022-10-23T10:46:20;9.07;;;2.63;;
66012;SDS011;52783;50.502;8.190;2022-10-23T10:48:50;6.85;;;2.60;;
66012;SDS011;52783;50.502;8.190;2022-10-23T10:57:03;6.82;;;2.30;;
66012;SDS011;52783;50.502;8.190;2022-10-23T10:59:38;3.13;;;2.38;;
66012;SDS011;52783;50.502;8.190;2022-10-23T11:02:16;8.15;;;2.92;;
66012;SDS011;52783;50.502;8.190;2022-10-23T11:04:50;25.05;;;3.80;;
66012;SDS011;52783;50.502;8.190;2022-10-23T11:07:23;8.30;;;3.25;;
66012;SDS011;52783;50.502;8.190;2022-10-23T11:09:52;6.53;;;3.05;;
66012;SDS011;52783;50.502;8.190;2022-10-23T11:12:19;4.45;;;2.78;;
66012;SDS011;52783;50.502;8.190;2022-10-23T11:14:48;12.65;;;2.97;;
66012;SDS011;52783;50.502;8.190;2022-10-23T11:17:17;5.10;;;2.50;;
66012;SDS011;52783;50.502;8.190;2022-10-23T11:19:51;12.48;;;2.70;;
66012;SDS011;52783;50.502;8.190;2022-10-23T11:22:27;11.50;;;3.15;;
66012;SDS011;52783;50.502;8.190;2022-10-23T11:30:23;11.60;;;3.38;;
66012;SDS011;52783;50.502;8.190;2022-10-23T11:35:44;5.15;;;2.42;;
66012;SDS011;52783;50.502;8.190;2022-10-23T11:38:30;4.15;;;2.33;;
66012;SDS011;52783;50.502;8.190;2022-10-23T11:41:00;11.05;;;2.80;;
66012;SDS011;52783;50.502;8.190;2022-10-23T11:43:45;11.38;;;3.80;;
66012;SDS011;52783;50.502;8.190;2022-10-23T11:46:35;7.75;;;3.78;;
66012;SDS011;52783;50.502;8.190;2022-10-23T11:49:03;8.45;;;2.47;;
66012;SDS011;52783;50.502;8.190;2022-10-23T11:51:37;15.05;;;3.05;;
66012;SDS011;52783;50.502;8.190;2022-10-23T11:54:22;4.88;;;2.45;;
66012;SDS011;52783;50.502;8.190;2022-10-23T11:57:07;5.50;;;2.25;;
66012;SDS011;52783;50.502;8.190;2022-10-23T11:59:35;6.53;;;2.72;;
66012;SDS011;52783;50.502;8.190;2022-10-23T12:02:33;11.18;;;2.63;;
66012;SDS011;52783;50.502;8.190;2022-10-23T12:05:09;3.83;;;2.40;;
66012;SDS011;52783;50.502;8.190;2022-10-23T12:07:59;3.28;;;2.20;;
66012;SDS011;52783;50.502;8.190;2022-10-23T12:10:42;4.90;;;2.42;;
66012;SDS011;52783;50.502;8.190;2022-10-23T12:15:56;5.55;;;2.40;;
66012;SDS011;52783;50.502;8.190;2022-10-23T12:18:21;17.98;;;2.60;;
66012;SDS011;52783;50.502;8.190;2022-10-23T12:20:50;8.57;;;2.60;;
66012;SDS011;52783;50.502;8.190;2022-10-23T12:23:38;6.60;;;2.17;;
66012;SDS011;52783;50.502;8.190;2022-10-23T12:31:47;4.47;;;2.33;;
66012;SDS011;52783;50.502;8.190;2022-10-23T12:34:56;7.70;;;2.40;;
66012;SDS011;52783;50.502;8.190;2022-10-23T12:40:38;8.00;;;2.28;;
66012;SDS011;52783;50.502;8.190;2022-10-23T12:43:15;5.45;;;1.90;;
66012;SDS011;52783;50.502;8.190;2022-10-23T12:45:50;7.20;;;2.20;;
66012;SDS011;52783;50.502;8.190;2022-10-23T12:48:17;3.60;;;1.83;;
66012;SDS011;52783;50.502;8.190;2022-10-23T12:50:46;11.20;;;2.25;;
66012;SDS011;52783;50.502;8.190;2022-10-23T12:53:15;8.35;;;1.92;;
66012;SDS011;52783;50.502;8.190;2022-10-23T12:55:56;5.55;;;1.85;;
66012;SDS011;52783;50.502;8.190;2022-10-23T12:58:28;7.85;;;1.70;;
66012;SDS011;52783;50.502;8.190;2022-10-23T13:00:59;8.70;;;1.90;;
66012;SDS011;52783;50.502;8.190;2022-10-23T13:03:29;2.50;;;1.70;;
66012;SDS011;52783;50.502;8.190;2022-10-23T13:05:57;9.57;;;2.10;;
66012;SDS011;52783;50.502;8.190;2022-10-23T13:08:26;3.80;;;1.60;;
66012;SDS011;52783;50.502;8.190;2022-10-23T13:10:58;6.38;;;1.80;;
66012;SDS011;52783;50.502;8.190;2022-10-23T13:13:24;7.65;;;2.10;;
66012;SDS011;52783;50.502;8.190;2022-10-23T13:15:50;3.58;;;1.50;;
66012;SDS011;52783;50.502;8.190;2022-10-23T13:18:15;16.67;;;1.95;;
66012;SDS011;52783;50.502;8.190;2022-10-23T13:20:54;3.70;;;2.20;;
66012;SDS011;52783;50.502;8.190;2022-10-23T13:23:29;15.18;;;2.20;;
66012;SDS011;52783;50.502;8.190;2022-10-23T13:25:57;7.28;;;3.22;;
66012;SDS011;52783;50.502;8.190;2022-10-23T13:28:42;8.13;;;2.10;;
66012;SDS011;52783;50.502;8.190;2022-10-23T13:33:39;2.97;;;2.30;;
66012;SDS011;52783;50.502;8.190;2022-10-23T13:38:57;7.65;;;2.20;;
66012;SDS011;52783;50.502;8.190;2022-10-23T13:41:25;6.70;;;2.20;;
66012;SDS011;52783;50.502;8.190;2022-10-23T13:43:53;7.68;;;2.65;;
66012;SDS011;52783;50.502;8.190;2022-10-23T13:46:19;5.50;;;2.60;;
66012;SDS011;52783;50.502;8.190;2022-10-23T13:48:47;6.85;;;3.20;;
66012;SDS011;52783;50.502;8.190;2022-10-23T13:51:20;6.30;;;3.70;;
66012;SDS011;52783;50.502;8.190;2022-10-23T13:53:47;8.75;;;3.50;;
66012;SDS011;52783;50.502;8.190;2022-10-23T13:56:14;7.68;;;2.88;;
66012;SDS011;52783;50.502;8.190;2022-10-23T13:58:41;7.32;;;2.80;;
66012;SDS011;52783;50.502;8.190;2022-10-23T14:01:19;4.57;;;2.53;;
66012;SDS011;52783;50.502;8.190;2022-10-23T14:03:50;6.78;;;2.35;;
66012;SDS011;52783;50.502;8.190;2022-10-23T14:06:17;8.15;;;2.40;;
66012;SDS011;52783;50.502;8.190;2022-10-23T14:08:43;7.43;;;2.40;;
66012;SDS011;52783;50.502;8.190;2022-10-23T14:11:09;4.88;;;2.30;;
66012;SDS011;52783;50.502;8.190;2022-10-23T14:13:36;6.10;;;2.58;;
66012;SDS011;52783;50.502;8.190;2022-10-23T14:16:02;3.33;;;2.25;;
66012;SDS011;52783;50.502;8.190;2022-10-23T14:18:27;6.85;;;2.33;;
66012;SDS011;52783;50.502;8.190;2022-10-23T14:20:53;9.68;;;2.13;;
66012;SDS011;52783;50.502;8.190;2022-10-23T14:23:18;5.65;;;2.40;;
66012;SDS011;52783;50.502;8.190;2022-10-23T14:25:44;4.95;;;2.30;;
66012;SDS011;52783;50.502;8.190;2022-10-23T14:28:09;3.55;;;2.00;;
66012;SDS011;52783;50.502;8.190;2022-10-23T14:30:36;5.63;;;2.17;;
66012;SDS011;52783;50.502;8.190;2022-10-23T14:33:02;6.07;;;2.10;;
66012;SDS011;52783;50.502;8.190;2022-10-23T14:35:27;7.47;;;1.90;;
66012;SDS011;52783;50.502;8.190;2022-10-23T14:37:53;2.80;;;1.83;;
66012;SDS011;52783;50.502;8.190;2022-10-23T14:40:19;4.93;;;2.20;;
66012;SDS011;52783;50.502;8.190;2022-10-23T14:42:44;6.50;;;2.53;;
66012;SDS011;52783;50.502;8.190;2022-10-23T14:45:10;5.78;;;2.00;;
66012;SDS011;52783;50.502;8.190;2022-10-23T14:47:35;5.93;;;2.50;;
66012;SDS011;52783;50.502;8.190;2022-10-23T14:50:01;2.70;;;1.92;;
66012;SDS011;52783;50.502;8.190;2022-10-23T14:52:27;4.63;;;2.10;;
66012;SDS011;52783;50.502;8.190;2022-10-23T14:54:52;11.85;;;2.25;;
66012;SDS011;52783;50.502;8.190;2022-10-23T14:57:18;6.13;;;2.15;;
66012;SDS011;52783;50.502;8.190;2022-10-23T14:59:45;3.60;;;1.90;;
66012;SDS011;52783;50.502;8.190;2022-10-23T15:02:12;6.40;;;2.13;;
66012;SDS011;52783;50.502;8.190;2022-10-23T15:04:38;6.40;;;2.22;;
66012;SDS011;52783;50.502;8.190;2022-10-23T15:07:04;4.85;;;2.30;;
66012;SDS011;52783;50.502;8.190;2022-10-23T15:09:29;7.00;;;2.58;;
66012;SDS011;52783;50.502;8.190;2022-10-23T15:12:00;8.48;;;2.15;;
66012;SDS011;52783;50.502;8.190;2022-10-23T15:14:28;3.75;;;2.10;;
66012;SDS011;52783;50.502;8.190;2022-10-23T15:16:53;7.55;;;2.40;;
66012;SDS011;52783;50.502;8.190;2022-10-23T15:19:18;15.45;;;2.10;;
66012;SDS011;52783;50.502;8.190;2022-10-23T15:21:45;11.85;;;2.30;;
66012;SDS011;52783;50.502;8.190;2022-10-23T15:24:11;10.70;;;2.33;;
66012;SDS011;52783;50.502;8.190;2022-10-23T15:26:37;6.45;;;2.70;;
66012;SDS011;52783;50.502;8.190;2022-10-23T15:29:03;4.18;;;2.90;;
66012;SDS011;52783;50.502;8.190;2022-10-23T15:34:28;2.83;;;2.60;;
66012;SDS011;52783;50.502;8.190;2022-10-23T15:36:54;4.40;;;2.75;;
66012;SDS011;52783;50.502;8.190;2022-10-23T15:39:22;4.60;;;2.72;;
66012;SDS011;52783;50.502;8.190;2022-10-23T15:41:49;8.75;;;2.80;;
66012;SDS011;52783;50.502;8.190;2022-10-23T15:44:17;7.90;;;2.67;;
66012;SDS011;52783;50.502;8.190;2022-10-23T15:46:44;11.63;;;3.70;;
66012;SDS011;52783;50.502;8.190;2022-10-23T15:49:10;5.28;;;3.47;;
66012;SDS011;52783;50.502;8.190;2022-10-23T15:51:37;7.07;;;4.03;;
66012;SDS011;52783;50.502;8.190;2022-10-23T15:54:03;23.27;;;4.18;;
66012;SDS011;52783;50.502;8.190;2022-10-23T15:56:29;8.15;;;3.25;;
66012;SDS011;52783;50.502;8.190;2022-10-23T15:58:55;15.02;;;3.25;;
66012;SDS011;52783;50.502;8.190;2022-10-23T16:01:21;4.60;;;2.58;;
66012;SDS011;52783;50.502;8.190;2022-10-23T16:03:46;3.45;;;2.40;;
66012;SDS011;52783;50.502;8.190;2022-10-23T16:06:12;5.70;;;2.45;;
66012;SDS011;52783;50.502;8.190;2022-10-23T16:08:39;5.05;;;2.58;;
66012;SDS011;52783;50.502;8.190;2022-10-23T16:11:11;7.07;;;2.80;;
66012;SDS011;52783;50.502;8.190;2022-10-23T16:13:41;4.85;;;2.33;;
66012;SDS011;52783;50.502;8.190;2022-10-23T16:16:07;7.05;;;3.20;;
66012;SDS011;52783;50.502;8.190;2022-10-23T16:18:33;6.22;;;3.58;;
66012;SDS011;52783;50.502;8.190;2022-10-23T16:20:58;6.88;;;4.20;;
66012;SDS011;52783;50.502;8.190;2022-10-23T16:23:24;7.43;;;4.30;;
66012;SDS011;52783;50.502;8.190;2022-10-23T16:25:52;5.00;;;3.25;;
66012;SDS011;52783;50.502;8.190;2022-10-23T16:28:18;5.13;;;2.67;;
66012;SDS011;52783;50.502;8.190;2022-10-23T16:30:43;13.15;;;2.92;;
66012;SDS011;52783;50.502;8.190;2022-10-23T16:33:10;7.32;;;2.90;;
66012;SDS011;52783;50.502;8.190;2022-10-23T16:35:36;6.63;;;2.72;;
66012;SDS011;52783;50.502;8.190;2022-10-23T16:38:02;6.53;;;2.50;;